createdAt,value
2023-03-02T00:02:05.183Z,1.91
2023-03-02T00:04:53.348Z,1.68
2023-03-02T00:07:34.977Z,1.82
2023-03-02T00:10:01.770Z,1.67
2023-03-02T00:12:31.837Z,1.82
2023-03-02T00:14:58.360Z,1.98
2023-03-02T00:17:27.815Z,1.78
2023-03-02T00:20:10.318Z,1.71
2023-03-02T00:22:42.074Z,1.73
2023-03-02T00:25:10.530Z,1.64
2023-03-02T00:27:39.679Z,1.78
2023-03-02T00:30:08.068Z,1.86
2023-03-02T00:32:35.055Z,1.83
2023-03-02T00:35:01.605Z,1.76
2023-03-02T00:37:28.266Z,1.85
2023-03-02T00:40:01.614Z,2.10
2023-03-02T00:42:28.413Z,1.83
2023-03-02T00:44:54.979Z,1.53
2023-03-02T00:47:21.559Z,1.49
2023-03-02T00:49:49.417Z,1.70
2023-03-02T00:52:17.102Z,1.74
2023-03-02T00:54:43.623Z,1.60
2023-03-02T00:57:10.248Z,1.69
2023-03-02T00:59:39.925Z,1.64
2023-03-02T01:02:06.969Z,1.57
2023-03-02T01:04:36.308Z,1.59
2023-03-02T01:07:15.569Z,1.72
2023-03-02T01:09:43.433Z,1.59
2023-03-02T01:12:11.280Z,1.47
2023-03-02T01:14:44.273Z,1.57
2023-03-02T01:17:11.837Z,1.48
2023-03-02T01:19:39.059Z,1.46
2023-03-02T01:22:06.420Z,1.44
2023-03-02T01:24:35.981Z,1.41
2023-03-02T01:27:02.587Z,1.30
2023-03-02T01:29:29.244Z,1.38
2023-03-02T01:32:01.082Z,1.46
2023-03-02T01:34:27.594Z,1.33
2023-03-02T01:36:54.641Z,1.42
2023-03-02T01:39:22.564Z,1.42
2023-03-02T01:41:53.253Z,1.51
2023-03-02T01:44:41.588Z,1.60
2023-03-02T01:47:18.688Z,1.61
2023-03-02T01:49:49.969Z,1.53
2023-03-02T01:52:17.417Z,1.69
2023-03-02T01:54:49.956Z,1.57
2023-03-02T01:57:22.492Z,1.62
2023-03-02T01:59:53.869Z,1.69
2023-03-02T02:02:20.444Z,1.49
2023-03-02T02:04:49.118Z,1.63
2023-03-02T02:07:16.289Z,1.52
2023-03-02T02:09:51.616Z,1.59
2023-03-02T02:12:23.593Z,1.59
2023-03-02T02:14:50.768Z,1.49
2023-03-02T02:17:19.024Z,1.75
2023-03-02T02:20:19.587Z,1.84
2023-03-02T02:23:05.066Z,1.56
2023-03-02T02:25:49.765Z,1.47
2023-03-02T02:28:49.630Z,1.43
2023-03-02T02:31:21.233Z,1.49
2023-03-02T02:33:53.670Z,1.56
2023-03-02T02:36:23.725Z,1.53
2023-03-02T02:38:54.177Z,1.53
2023-03-02T02:41:25.707Z,1.46
2023-03-02T02:43:53.906Z,1.41
2023-03-02T02:46:20.645Z,1.43
2023-03-02T02:48:47.238Z,1.37
2023-03-02T02:51:21.352Z,1.33
2023-03-02T02:54:01.423Z,1.40
2023-03-02T02:56:33.825Z,1.31
2023-03-02T02:59:07.932Z,1.36
2023-03-02T03:01:35.936Z,1.33
2023-03-02T03:04:05.104Z,1.29
2023-03-02T03:06:42.050Z,1.34
2023-03-02T03:09:11.223Z,1.44
2023-03-02T03:11:43.050Z,1.27
2023-03-02T03:14:15.469Z,1.34
2023-03-02T03:16:45.940Z,1.43
2023-03-02T03:19:32.943Z,1.57
2023-03-02T03:22:03.464Z,1.48
2023-03-02T03:24:32.170Z,1.43
2023-03-02T03:26:59.177Z,1.45
2023-03-02T03:29:28.854Z,1.46
2023-03-02T03:31:57.042Z,1.42
2023-03-02T03:34:25.207Z,1.39
2023-03-02T03:36:52.143Z,1.56
2023-03-02T03:39:20.121Z,1.52
2023-03-02T03:41:46.797Z,1.61
2023-03-02T03:44:13.254Z,1.64
2023-03-02T03:46:39.789Z,1.76
2023-03-02T03:49:06.302Z,1.80
2023-03-02T03:51:35.580Z,1.55
2023-03-02T03:54:04.345Z,1.81
2023-03-02T03:56:33.905Z,1.89
2023-03-02T03:59:07.627Z,1.73
2023-03-02T04:01:38.086Z,1.79
2023-03-02T04:04:07.342Z,1.57
2023-03-02T04:06:34.712Z,1.67
2023-03-02T04:09:04.878Z,1.62
2023-03-02T04:11:34.209Z,1.73
2023-03-02T04:14:01.215Z,1.55
2023-03-02T04:16:28.556Z,1.41
2023-03-02T04:18:55.042Z,1.53
2023-03-02T04:21:21.660Z,1.54
2023-03-02T04:24:00.197Z,1.78
2023-03-02T04:26:27.278Z,1.82
2023-03-02T04:28:56.834Z,1.66
2023-03-02T04:31:25.514Z,1.80
2023-03-02T04:33:52.016Z,1.68
2023-03-02T04:36:19.651Z,1.83
2023-03-02T04:38:47.975Z,1.45
2023-03-02T04:41:22.349Z,1.80
2023-03-02T04:43:49.464Z,1.85
2023-03-02T04:46:20.045Z,1.89
2023-03-02T04:48:47.675Z,1.73
2023-03-02T04:51:24.212Z,1.73
2023-03-02T04:53:56.392Z,1.79
2023-03-02T04:56:23.124Z,1.82
2023-03-02T04:58:49.682Z,1.83
2023-03-02T05:01:18.067Z,1.72
2023-03-02T05:03:44.579Z,1.49
2023-03-02T05:06:11.380Z,1.51
2023-03-02T05:08:38.558Z,1.40
2023-03-02T05:11:08.325Z,1.70
2023-03-02T05:13:35.808Z,1.33
2023-03-02T05:16:02.685Z,1.31
2023-03-02T05:18:29.431Z,1.36
2023-03-02T05:20:55.986Z,1.53
2023-03-02T05:23:27.105Z,1.50
2023-03-02T05:25:56.934Z,1.39
2023-03-02T05:28:26.060Z,1.27
2023-03-02T05:30:53.245Z,1.23
2023-03-02T05:33:19.930Z,1.31
2023-03-02T05:35:47.712Z,1.24
2023-03-02T05:38:14.831Z,1.21
2023-03-02T05:40:43.607Z,1.29
2023-03-02T05:43:16.063Z,1.20
2023-03-02T05:45:42.629Z,1.12
2023-03-02T05:48:10.481Z,1.12
2023-03-02T05:50:46.138Z,1.14
2023-03-02T05:53:13.171Z,1.07
2023-03-02T05:55:39.679Z,0.95
2023-03-02T05:58:09.071Z,1.02
2023-03-02T06:00:35.730Z,1.16
2023-03-02T06:03:02.313Z,1.00
2023-03-02T06:05:28.842Z,1.08
2023-03-02T06:07:55.262Z,1.07
2023-03-02T06:10:22.030Z,1.15
2023-03-02T06:12:48.499Z,1.16
2023-03-02T06:15:16.296Z,1.14
2023-03-02T06:17:42.918Z,0.95
2023-03-02T06:20:12.443Z,1.26
2023-03-02T06:22:45.254Z,1.37
2023-03-02T06:25:23.848Z,1.28
2023-03-02T06:27:51.742Z,1.40
2023-03-02T06:30:24.542Z,1.56
2023-03-02T06:32:51.717Z,1.49
2023-03-02T06:35:18.500Z,1.71
2023-03-02T06:37:46.124Z,2.02
2023-03-02T06:40:13.903Z,2.16
2023-03-02T06:42:41.958Z,2.34
2023-03-02T06:45:10.323Z,2.57
2023-03-02T06:47:37.116Z,2.66
2023-03-02T06:50:04.634Z,2.94
2023-03-02T06:52:31.166Z,3.00
2023-03-02T06:55:01.679Z,3.11
2023-03-02T06:57:34.091Z,3.18
2023-03-02T07:00:09.688Z,3.66
2023-03-02T07:02:37.237Z,3.85
2023-03-02T07:05:04.222Z,4.24
2023-03-02T07:07:30.734Z,4.49
2023-03-02T07:09:57.301Z,4.76
2023-03-02T07:12:23.772Z,4.83
2023-03-02T07:14:50.336Z,5.01
2023-03-02T07:17:16.837Z,5.21
2023-03-02T07:19:43.376Z,5.48
2023-03-02T07:22:09.881Z,5.44
2023-03-02T07:24:37.347Z,5.59
2023-03-02T07:27:04.383Z,6.08
2023-03-02T07:29:30.890Z,6.19
2023-03-02T07:32:00.275Z,6.47
2023-03-02T07:34:27.544Z,6.62
2023-03-02T07:36:55.341Z,5.87
2023-03-02T07:39:22.006Z,6.96
2023-03-02T07:41:48.703Z,6.80
2023-03-02T07:44:17.227Z,7.19
2023-03-02T07:46:43.744Z,7.11
2023-03-02T07:49:10.465Z,7.48
2023-03-02T07:51:37.253Z,7.19
2023-03-02T07:54:05.035Z,7.43
2023-03-02T07:56:31.672Z,7.69
2023-03-02T07:58:58.207Z,7.69
2023-03-02T08:01:26.010Z,7.62
2023-03-02T08:03:52.651Z,7.70
2023-03-02T08:06:19.153Z,7.79
2023-03-02T08:08:46.025Z,7.54
2023-03-02T08:11:15.867Z,7.83
2023-03-02T08:13:43.062Z,7.69
2023-03-02T08:16:11.640Z,7.39
2023-03-02T08:18:40.752Z,7.80
2023-03-02T08:21:22.244Z,7.71
2023-03-02T08:23:50.718Z,7.86
2023-03-02T08:26:18.740Z,7.95
2023-03-02T08:28:45.647Z,7.80
2023-03-02T08:31:13.320Z,8.19
2023-03-02T08:33:40.126Z,8.01
2023-03-02T08:36:10.683Z,8.08
2023-03-02T08:38:37.470Z,8.39
2023-03-02T08:41:10.761Z,8.35
2023-03-02T08:43:37.407Z,8.49
2023-03-02T08:46:04.059Z,8.37
2023-03-02T08:48:30.593Z,8.51
2023-03-02T08:51:07.184Z,8.55
2023-03-02T08:53:37.169Z,9.24
2023-03-02T08:56:04.234Z,9.39
2023-03-02T08:58:30.692Z,9.51
2023-03-02T09:00:57.206Z,8.73
2023-03-02T09:03:23.933Z,9.20
2023-03-02T09:05:51.035Z,9.32
2023-03-02T09:08:18.512Z,9.12
2023-03-02T09:10:45.137Z,9.12
2023-03-02T09:13:11.662Z,9.21
2023-03-02T09:15:38.173Z,9.44
2023-03-02T09:18:04.912Z,9.78
2023-03-02T09:20:32.185Z,10.23
2023-03-02T09:22:59.781Z,10.21
2023-03-02T09:25:26.286Z,10.31
2023-03-02T09:27:53.855Z,10.05
2023-03-02T09:30:20.324Z,10.12
2023-03-02T09:32:49.006Z,10.63
2023-03-02T09:35:15.691Z,10.86
2023-03-02T09:37:44.514Z,10.98
2023-03-02T09:40:22.256Z,10.33
2023-03-02T09:43:11.626Z,10.61
2023-03-02T09:45:50.129Z,10.95
2023-03-02T09:48:29.561Z,11.15
2023-03-02T09:51:05.413Z,10.78
2023-03-02T09:53:42.100Z,11.03
2023-03-02T09:56:20.054Z,11.47
2023-03-02T09:59:01.246Z,11.13
2023-03-02T10:01:36.521Z,11.00
2023-03-02T10:04:17.762Z,10.59
2023-03-02T10:06:46.709Z,10.55
2023-03-02T10:09:13.317Z,10.60
2023-03-02T10:11:44.445Z,10.79
2023-03-02T10:14:19.976Z,11.06
2023-03-02T10:17:10.065Z,10.99
2023-03-02T10:19:49.929Z,11.20
2023-03-02T10:22:20.384Z,11.15
2023-03-02T10:24:53.900Z,11.00
2023-03-02T10:27:26.294Z,11.11
2023-03-02T10:30:06.531Z,11.03
2023-03-02T10:32:37.422Z,10.57
2023-03-02T10:35:21.179Z,10.71
2023-03-02T10:37:48.324Z,10.68
2023-03-02T10:40:40.042Z,10.66
2023-03-02T10:43:15.363Z,10.42
2023-03-02T10:45:43.192Z,10.51
2023-03-02T10:48:12.732Z,10.89
2023-03-02T10:50:39.581Z,10.76
2023-03-02T10:53:25.233Z,10.88
2023-03-02T10:55:53.570Z,10.81
2023-03-02T10:58:20.149Z,10.77
2023-03-02T11:01:15.048Z,10.74
2023-03-02T11:03:42.658Z,11.05
2023-03-02T11:06:19.053Z,11.03
2023-03-02T11:08:58.445Z,10.97
2023-03-02T11:11:25.225Z,10.75
2023-03-02T11:13:51.754Z,10.75
2023-03-02T11:16:18.196Z,10.85
2023-03-02T11:18:52.425Z,10.63
2023-03-02T11:21:42.908Z,10.98
2023-03-02T11:24:18.474Z,10.84
2023-03-02T11:26:50.108Z,10.75
2023-03-02T11:29:16.624Z,10.60
2023-03-02T11:31:50.643Z,10.53
2023-03-02T11:34:20.092Z,10.60
2023-03-02T11:37:21.631Z,10.67
2023-03-02T11:39:55.103Z,10.94
2023-03-02T11:42:31.593Z,10.80
2023-03-02T11:45:06.250Z,10.86
2023-03-02T11:47:34.086Z,10.89
2023-03-02T11:50:05.394Z,11.19
2023-03-02T11:52:36.752Z,11.18
2023-03-02T11:55:18.400Z,10.56
2023-03-02T11:57:49.875Z,11.14
2023-03-02T12:00:38.997Z,10.83
2023-03-02T12:03:25.698Z,10.94
2023-03-02T12:05:52.098Z,10.86
2023-03-02T12:08:18.471Z,10.75
2023-03-02T12:10:57.201Z,10.91
2023-03-02T12:13:26.494Z,10.94
2023-03-02T12:15:53.297Z,10.68
2023-03-02T12:18:22.698Z,10.65
2023-03-02T12:21:05.594Z,11.06
2023-03-02T12:23:53.155Z,11.40
2023-03-02T12:26:19.568Z,10.96
2023-03-02T12:29:09.635Z,10.97
2023-03-02T12:31:56.509Z,11.45
2023-03-02T12:34:35.281Z,11.29
2023-03-02T12:37:08.258Z,11.24
2023-03-02T12:40:03.937Z,11.30
2023-03-02T12:42:52.009Z,11.26
2023-03-02T12:45:40.249Z,11.52
2023-03-02T12:48:20.459Z,11.67
2023-03-02T12:50:48.014Z,11.48
2023-03-02T12:53:19.578Z,11.22
2023-03-02T12:55:46.838Z,11.12
2023-03-02T12:58:23.896Z,11.27
2023-03-02T13:01:02.046Z,11.32
2023-03-02T13:03:31.632Z,11.54
2023-03-02T13:06:13.413Z,11.40
2023-03-02T13:08:43.106Z,11.49
2023-03-02T13:11:09.601Z,11.20
2023-03-02T13:13:43.041Z,11.24
2023-03-02T13:16:32.512Z,11.64
2023-03-02T13:19:05.854Z,11.69
2023-03-02T13:21:39.416Z,11.51
2023-03-02T13:24:36.037Z,11.38
2023-03-02T13:27:14.165Z,11.73
2023-03-02T13:29:40.710Z,11.49
2023-03-02T13:32:35.393Z,11.51
2023-03-02T13:35:07.421Z,11.67
2023-03-02T13:37:40.754Z,11.55
2023-03-02T13:40:27.400Z,11.33
2023-03-02T13:42:54.669Z,11.45
2023-03-02T13:45:23.439Z,11.49
2023-03-02T13:47:50.015Z,11.57
2023-03-02T13:50:22.290Z,11.45
2023-03-02T13:52:50.106Z,11.45
2023-03-02T13:55:19.532Z,11.42
2023-03-02T13:57:47.459Z,11.08
2023-03-02T14:00:16.874Z,10.84
2023-03-02T14:02:43.805Z,11.39
2023-03-02T14:05:17.722Z,11.43
2023-03-02T14:07:53.212Z,11.40
2023-03-02T14:10:20.721Z,11.23
2023-03-02T14:12:58.312Z,11.34
2023-03-02T14:15:25.358Z,11.21
2023-03-02T14:17:51.837Z,11.31
2023-03-02T14:20:20.342Z,11.35
2023-03-02T14:22:50.754Z,11.33
2023-03-02T14:25:20.478Z,11.27
2023-03-02T14:27:48.165Z,11.26
2023-03-02T14:30:20.182Z,11.10
2023-03-02T14:32:48.794Z,11.16
2023-03-02T14:35:16.756Z,10.98
2023-03-02T14:37:47.299Z,10.98
2023-03-02T14:40:18.535Z,11.01
2023-03-02T14:42:45.097Z,11.09
2023-03-02T14:45:12.409Z,10.95
2023-03-02T14:47:41.011Z,10.88
2023-03-02T14:50:08.137Z,10.93
2023-03-02T14:52:42.879Z,10.71
2023-03-02T14:55:19.858Z,10.82
2023-03-02T14:57:50.045Z,11.18
2023-03-02T15:00:16.881Z,11.16
2023-03-02T15:02:49.494Z,11.27
2023-03-02T15:05:16.403Z,11.22
2023-03-02T15:07:43.414Z,10.95
2023-03-02T15:10:18.818Z,11.04
2023-03-02T15:12:45.500Z,11.24
2023-03-02T15:15:12.740Z,11.26
2023-03-02T15:17:40.589Z,11.10
2023-03-02T15:20:08.186Z,10.92
2023-03-02T15:22:34.996Z,10.87
2023-03-02T15:25:01.468Z,10.91
2023-03-02T15:27:28.580Z,10.68
2023-03-02T15:29:56.872Z,10.54
2023-03-02T15:32:23.706Z,10.39
2023-03-02T15:34:50.161Z,10.72
2023-03-02T15:37:16.745Z,10.73
2023-03-02T15:39:44.504Z,10.76
2023-03-02T15:42:12.765Z,10.95
2023-03-02T15:44:40.472Z,10.68
2023-03-02T15:47:07.090Z,10.72
2023-03-02T15:49:33.621Z,10.66
2023-03-02T15:52:00.148Z,10.45
2023-03-02T15:54:29.426Z,10.34
2023-03-02T15:56:56.796Z,10.34
2023-03-02T15:59:25.558Z,10.50
2023-03-02T16:01:52.563Z,10.67
2023-03-02T16:04:19.888Z,10.36
2023-03-02T16:06:47.565Z,10.17
2023-03-02T16:09:14.081Z,10.17
2023-03-02T16:11:41.080Z,10.06
2023-03-02T16:14:07.597Z,10.01
2023-03-02T16:16:34.206Z,10.19
2023-03-02T16:19:01.224Z,9.64
2023-03-02T16:21:28.948Z,9.86
2023-03-02T16:24:03.300Z,9.82
2023-03-02T16:26:31.117Z,9.83
2023-03-02T16:28:57.720Z,9.57
2023-03-02T16:31:28.496Z,9.54
2023-03-02T16:33:57.510Z,9.50
2023-03-02T16:36:24.039Z,9.56
2023-03-02T16:38:52.234Z,9.31
2023-03-02T16:41:21.224Z,9.35
2023-03-02T16:43:53.758Z,9.21
2023-03-02T16:46:23.094Z,9.00
2023-03-02T16:48:57.233Z,8.89
2023-03-02T16:51:24.090Z,8.82
2023-03-02T16:53:50.653Z,8.63
2023-03-02T16:56:17.195Z,8.51
2023-03-02T16:58:46.130Z,8.35
2023-03-02T17:01:16.553Z,8.21
2023-03-02T17:03:44.190Z,8.07
2023-03-02T17:06:12.627Z,8.04
2023-03-02T17:08:39.482Z,8.01
2023-03-02T17:11:06.586Z,7.91
2023-03-02T17:13:33.223Z,7.86
2023-03-02T17:16:00.273Z,7.82
2023-03-02T17:18:27.901Z,7.77
2023-03-02T17:20:56.271Z,7.72
2023-03-02T17:23:23.480Z,7.73
2023-03-02T17:25:55.881Z,7.75
2023-03-02T17:28:22.643Z,7.72
2023-03-02T17:30:49.418Z,7.47
2023-03-02T17:33:18.238Z,7.34
2023-03-02T17:35:46.365Z,7.22
2023-03-02T17:38:13.212Z,7.14
2023-03-02T17:40:41.444Z,7.10
2023-03-02T17:43:11.454Z,7.03
2023-03-02T17:45:38.785Z,6.93
2023-03-02T17:48:05.669Z,6.78
2023-03-02T17:50:32.512Z,6.64
2023-03-02T17:52:59.941Z,6.64
2023-03-02T17:55:29.226Z,6.52
2023-03-02T17:57:55.690Z,6.67
2023-03-02T18:00:23.490Z,6.62
2023-03-02T18:02:50.512Z,6.64
2023-03-02T18:05:17.310Z,6.51
2023-03-02T18:07:54.757Z,6.41
2023-03-02T18:10:21.296Z,6.36
2023-03-02T18:12:48.497Z,6.34
2023-03-02T18:15:14.972Z,6.21
2023-03-02T18:17:41.605Z,6.24
2023-03-02T18:20:09.936Z,6.19
2023-03-02T18:22:36.386Z,6.12
2023-03-02T18:25:03.247Z,6.18
2023-03-02T18:27:31.842Z,6.24
2023-03-02T18:29:58.729Z,6.05
2023-03-02T18:32:25.872Z,5.81
2023-03-02T18:34:52.413Z,5.63
2023-03-02T18:37:19.065Z,5.59
2023-03-02T18:39:45.904Z,5.42
2023-03-02T18:42:12.798Z,5.38
2023-03-02T18:44:39.493Z,5.34
2023-03-02T18:47:07.507Z,5.23
2023-03-02T18:49:33.981Z,5.20
2023-03-02T18:52:05.709Z,5.02
2023-03-02T18:54:32.751Z,4.79
2023-03-02T18:57:00.068Z,4.83
2023-03-02T18:59:26.534Z,4.79
2023-03-02T19:01:55.185Z,4.98
2023-03-02T19:04:26.484Z,4.69
2023-03-02T19:06:55.714Z,4.67
2023-03-02T19:09:25.505Z,4.77
2023-03-02T19:11:52.090Z,4.85
2023-03-02T19:14:18.793Z,4.73
2023-03-02T19:16:46.003Z,4.72
2023-03-02T19:19:12.623Z,4.79
2023-03-02T19:21:39.105Z,4.90
2023-03-02T19:24:06.117Z,4.82
2023-03-02T19:26:33.056Z,4.78
2023-03-02T19:29:00.761Z,4.66
2023-03-02T19:31:27.876Z,4.73
2023-03-02T19:33:54.561Z,4.71
2023-03-02T19:36:21.024Z,4.72
2023-03-02T19:38:47.625Z,4.67
2023-03-02T19:41:17.117Z,4.66
2023-03-02T19:43:46.230Z,4.66
2023-03-02T19:46:15.161Z,4.47
2023-03-02T19:48:45.681Z,4.47
2023-03-02T19:51:13.769Z,4.35
2023-03-02T19:53:49.489Z,4.38
2023-03-02T19:56:16.577Z,4.40
2023-03-02T19:58:53.729Z,4.32
2023-03-02T20:01:22.582Z,4.32
2023-03-02T20:03:52.914Z,4.35
2023-03-02T20:06:21.563Z,4.42
2023-03-02T20:08:49.714Z,4.42
2023-03-02T20:11:17.431Z,4.37
2023-03-02T20:13:44.400Z,4.35
2023-03-02T20:16:13.735Z,4.38
2023-03-02T20:18:42.259Z,4.12
2023-03-02T20:21:08.904Z,4.24
2023-03-02T20:23:39.492Z,4.19
2023-03-02T20:26:08.960Z,4.22
2023-03-02T20:28:36.278Z,4.26
2023-03-02T20:31:08.916Z,4.19
2023-03-02T20:33:41.316Z,4.13
2023-03-02T20:36:09.335Z,4.14
2023-03-02T20:38:40.661Z,4.12
2023-03-02T20:41:09.977Z,3.99
2023-03-02T20:43:36.727Z,3.93
2023-03-02T20:46:04.712Z,3.85
2023-03-02T20:48:31.438Z,3.82
2023-03-02T20:50:58.678Z,3.81
2023-03-02T20:53:26.385Z,3.73
2023-03-02T20:55:52.850Z,3.54
2023-03-02T20:58:19.695Z,3.80
2023-03-02T21:00:46.337Z,3.72
2023-03-02T21:03:12.848Z,3.80
2023-03-02T21:05:41.378Z,3.73
2023-03-02T21:08:14.662Z,3.78
2023-03-02T21:10:43.050Z,3.68
2023-03-02T21:13:11.636Z,3.81
2023-03-02T21:15:38.407Z,3.70
2023-03-02T21:18:05.422Z,3.62
2023-03-02T21:20:34.099Z,3.60
2023-03-02T21:23:00.560Z,3.59
2023-03-02T21:25:28.411Z,3.38
2023-03-02T21:27:56.334Z,3.40
2023-03-02T21:30:27.932Z,3.37
2023-03-02T21:32:54.694Z,3.22
2023-03-02T21:35:21.994Z,3.24
2023-03-02T21:37:52.350Z,3.09
2023-03-02T21:40:23.867Z,3.10
2023-03-02T21:42:50.341Z,2.94
2023-03-02T21:45:18.517Z,2.96
2023-03-02T21:47:51.171Z,2.91
2023-03-02T21:50:24.573Z,2.92
2023-03-02T21:52:51.061Z,2.86
2023-03-02T21:55:17.579Z,2.92
2023-03-02T21:57:44.633Z,2.91
2023-03-02T22:00:24.055Z,2.87
2023-03-02T22:02:51.037Z,2.86
2023-03-02T22:05:18.586Z,2.81
2023-03-02T22:07:45.659Z,2.85
2023-03-02T22:10:23.983Z,2.74
2023-03-02T22:12:56.035Z,2.80
2023-03-02T22:15:24.264Z,2.74
2023-03-02T22:17:51.391Z,2.84
2023-03-02T22:20:19.826Z,2.84
2023-03-02T22:22:47.960Z,2.80
2023-03-02T22:25:17.274Z,2.79
2023-03-02T22:27:44.763Z,2.62
2023-03-02T22:30:23.557Z,2.76
2023-03-02T22:32:50.601Z,2.68
2023-03-02T22:35:26.506Z,2.76
2023-03-02T22:38:11.695Z,2.66
2023-03-02T22:40:38.505Z,2.39
2023-03-02T22:43:24.734Z,2.26
2023-03-02T22:45:52.277Z,2.22
2023-03-02T22:48:22.986Z,2.18
2023-03-02T22:50:50.296Z,2.13
2023-03-02T22:53:23.309Z,2.16
2023-03-02T22:55:54.224Z,2.10
2023-03-02T22:58:48.526Z,2.02
2023-03-02T23:01:47.559Z,2.05
2023-03-02T23:04:18.415Z,2.10
2023-03-02T23:06:56.098Z,1.98
2023-03-02T23:09:34.926Z,1.98
2023-03-02T23:12:19.574Z,1.82
2023-03-02T23:14:52.110Z,1.79
2023-03-02T23:17:22.516Z,1.78
2023-03-02T23:19:50.744Z,1.69
2023-03-02T23:22:17.630Z,1.69
2023-03-02T23:24:44.107Z,1.59
2023-03-02T23:27:11.340Z,1.74
2023-03-02T23:29:38.202Z,1.80
2023-03-02T23:32:05.081Z,1.83
2023-03-02T23:34:31.740Z,1.85
2023-03-02T23:36:59.579Z,1.84
2023-03-02T23:39:26.763Z,1.83
2023-03-02T23:41:55.656Z,1.80
2023-03-02T23:44:22.218Z,1.81
2023-03-02T23:46:49.323Z,1.64
2023-03-02T23:49:16.034Z,1.72
2023-03-02T23:51:43.448Z,1.72
2023-03-02T23:54:14.681Z,1.64
2023-03-02T23:56:41.196Z,1.56
2023-03-02T23:59:07.692Z,1.52
